Time;durP1;ratioP1;P1;durP2;ratioP2;P2;SDS_P1;SDS_P2;PMS_P1;PMS_P2;Temp;Humidity;BMP_temperature;BMP_pressure;BME280_temperature;BME280_humidity;BME280_pressure;Samples;Min_cycle;Max_cycle;Signal;HPM_P1;HPM_P2
2023/03/18 00:02:23;;;;;;;12.90;5.78;;;31.50;99.90;;;;;;5075192;28;20178;-70
2023/03/18 00:04:55;;;;;;;12.52;6.75;;;32.20;99.90;;;;;;5075087;28;20172;-70
2023/03/18 00:07:23;;;;;;;15.48;6.22;;;31.70;99.90;;;;;;5075129;28;20630;-71
2023/03/18 00:09:51;;;;;;;12.70;5.85;;;31.90;99.90;;;;;;5075005;28;20176;-70
2023/03/18 00:12:19;;;;;;;10.70;5.30;;;32.30;99.90;;;;;;5074511;28;20314;-70
2023/03/18 00:14:47;;;;;;;17.75;5.93;;;32.40;99.90;;;;;;5074659;28;20528;-70
2023/03/18 00:17:15;;;;;;;14.60;5.97;;;32.10;99.90;;;;;;5074864;28;20183;-70
2023/03/18 00:19:42;;;;;;;13.80;5.43;;;32.00;99.90;;;;;;5074956;28;20171;-70
2023/03/18 00:22:10;;;;;;;38.10;6.63;;;32.50;99.90;;;;;;5074738;28;20214;-70
2023/03/18 00:24:38;;;;;;;16.17;5.15;;;32.80;99.90;;;;;;5074668;28;20219;-70
2023/03/18 00:27:06;;;;;;;11.52;5.03;;;32.80;99.90;;;;;;5073515;28;20183;-70
2023/03/18 00:29:34;;;;;;;14.65;5.25;;;33.20;99.90;;;;;;5074878;28;20179;-71
2023/03/18 00:32:02;;;;;;;14.25;5.40;;;33.00;99.90;;;;;;5074460;28;20180;-72
2023/03/18 00:34:30;;;;;;;10.88;5.28;;;32.70;99.90;;;;;;5074923;28;20266;-70
2023/03/18 00:36:57;;;;;;;13.63;4.60;;;32.60;99.90;;;;;;5076080;28;20195;-71
2023/03/18 00:39:27;;;;;;;13.07;5.68;;;33.00;99.90;;;;;;5080704;28;20176;-71
2023/03/18 00:41:56;;;;;;;14.82;5.35;;;33.80;99.90;;;;;;5080617;28;20629;-73
2023/03/18 00:44:25;;;;;;;8.75;4.20;;;33.90;99.90;;;;;;5075887;28;20187;-71
2023/03/18 00:46:52;;;;;;;10.05;4.57;;;33.20;99.90;;;;;;5072853;28;20180;-71
2023/03/18 00:49:20;;;;;;;12.30;5.03;;;33.40;99.90;;;;;;5074436;28;20193;-73
2023/03/18 00:51:48;;;;;;;11.70;4.75;;;33.50;99.90;;;;;;5072938;28;20262;-71
2023/03/18 00:54:18;;;;;;;9.40;4.72;;;33.90;99.90;;;;;;5074149;28;20200;-71
2023/03/18 00:56:46;;;;;;;8.68;4.57;;;33.90;99.90;;;;;;5072790;28;20571;-73
2023/03/18 01:02:36;;;;;;;13.68;4.47;;;35.10;99.90;;;;;;5073521;28;20260;-72
2023/03/18 01:05:04;;;;;;;13.30;4.95;;;35.30;99.90;;;;;;5073747;28;20276;-71
2023/03/18 01:07:32;;;;;;;14.27;4.38;;;35.20;99.90;;;;;;5073844;28;20172;-69
2023/03/18 01:10:00;;;;;;;14.68;5.05;;;35.00;99.90;;;;;;5072407;28;20597;-71
2023/03/18 01:12:28;;;;;;;10.02;4.03;;;34.10;99.90;;;;;;5073266;28;20223;-72
2023/03/18 01:14:56;;;;;;;11.77;4.25;;;34.00;99.90;;;;;;5073492;28;20183;-70
2023/03/18 01:17:25;;;;;;;13.55;5.05;;;33.70;99.90;;;;;;5073393;28;20195;-70
2023/03/18 01:19:54;;;;;;;8.57;4.38;;;33.40;99.90;;;;;;5073619;28;20183;-71
2023/03/18 01:22:22;;;;;;;9.13;4.38;;;33.50;99.90;;;;;;5073282;28;20646;-70
2023/03/18 01:24:50;;;;;;;10.57;4.57;;;33.80;99.90;;;;;;5073450;28;20172;-70
2023/03/18 01:27:18;;;;;;;10.25;3.70;;;33.70;99.90;;;;;;5073291;28;20178;-72
2023/03/18 01:29:46;;;;;;;10.85;4.38;;;33.40;99.90;;;;;;5073272;28;20331;-72
2023/03/18 01:32:14;;;;;;;14.13;3.88;;;34.00;99.90;;;;;;5073905;28;20577;-72
2023/03/18 01:34:43;;;;;;;9.98;4.30;;;34.60;99.90;;;;;;5073211;28;20176;-73
2023/03/18 01:37:11;;;;;;;10.68;3.95;;;34.80;99.90;;;;;;5073302;28;20214;-72
2023/03/18 01:39:39;;;;;;;11.48;3.80;;;35.40;99.90;;;;;;5073318;28;20199;-73
2023/03/18 01:42:07;;;;;;;11.52;3.90;;;35.70;99.90;;;;;;5072830;28;20548;-73
2023/03/18 01:44:36;;;;;;;11.45;4.15;;;35.90;99.90;;;;;;5072959;28;20225;-71
2023/03/18 01:47:04;;;;;;;15.40;4.00;;;35.70;99.90;;;;;;5073222;28;20172;-71
2023/03/18 01:49:46;;;;;;;11.63;4.20;;;34.60;99.90;;;;;;5073178;28;20183;-71
2023/03/18 01:52:20;;;;;;;11.15;4.03;;;34.60;99.90;;;;;;5073039;28;20172;-72
2023/03/18 01:55:00;;;;;;;14.13;4.07;;;34.80;99.90;;;;;;5072978;28;20582;-71
2023/03/18 01:57:29;;;;;;;10.98;4.07;;;34.40;99.90;;;;;;5073051;28;20194;-72
2023/03/18 02:03:21;;;;;;;11.18;3.78;;;34.80;99.90;;;;;;5072620;28;20285;-73
2023/03/18 02:05:50;;;;;;;15.35;3.80;;;34.70;99.90;;;;;;5072973;28;20183;-73
2023/03/18 02:08:18;;;;;;;7.07;3.03;;;34.80;99.90;;;;;;5072846;28;20553;-70
2023/03/18 02:10:47;;;;;;;7.72;3.35;;;34.40;99.90;;;;;;5072890;28;20172;-70
2023/03/18 02:13:17;;;;;;;7.07;3.42;;;34.90;99.90;;;;;;5072353;28;20289;-71
2023/03/18 02:16:14;;;;;;;10.50;3.95;;;34.90;99.90;;;;;;5073063;28;20180;-70
2023/03/18 02:18:48;;;;;;;8.82;3.33;;;34.80;99.90;;;;;;5071785;28;20663;-70
2023/03/18 02:21:43;;;;;;;7.97;3.55;;;35.30;99.90;;;;;;5072962;28;20171;-70
2023/03/18 02:24:16;;;;;;;10.02;2.85;;;35.90;99.90;;;;;;5072737;28;20179;-70
2023/03/18 02:27:05;;;;;;;6.20;2.83;;;35.70;99.90;;;;;;5073250;28;20593;-72
2023/03/18 02:29:36;;;;;;;9.60;2.38;;;36.40;99.90;;;;;;5071690;28;20683;-70
2023/03/18 02:32:06;;;;;;;6.28;2.38;;;36.20;99.90;;;;;;5072882;28;20550;-69
2023/03/18 02:34:36;;;;;;;6.93;3.03;;;36.00;99.90;;;;;;5064912;28;20192;-69
2023/03/18 02:37:06;;;;;;;6.65;2.80;;;35.80;99.90;;;;;;5061571;28;20188;-70
2023/03/18 02:39:34;;;;;;;7.22;2.75;;;35.50;99.90;;;;;;5063144;28;20711;-70
2023/03/18 02:42:03;;;;;;;4.43;2.88;;;35.90;99.90;;;;;;5060195;28;20259;-73
2023/03/18 02:44:31;;;;;;;6.45;2.60;;;36.10;98.80;;;;;;5051316;28;21316;-72
2023/03/18 02:47:06;;;;;;;14.82;3.03;;;36.00;99.90;;;;;;5061327;28;20184;-74
2023/03/18 02:49:33;;;;;;;6.15;2.60;;;36.00;99.90;;;;;;5062208;28;20218;-73
2023/03/18 02:52:01;;;;;;;10.95;2.83;;;36.50;99.90;;;;;;5049242;28;20188;-72
2023/03/18 02:54:30;;;;;;;6.90;3.03;;;36.90;98.50;;;;;;5051355;28;20185;-73
2023/03/18 02:56:59;;;;;;;7.75;2.67;;;36.80;99.60;;;;;;5055133;28;20176;-73
2023/03/18 02:59:27;;;;;;;8.45;2.78;;;37.20;99.90;;;;;;5054825;28;20238;-72
2023/03/18 03:01:56;;;;;;;5.68;2.25;;;37.60;82.20;;;;;;5055077;28;20211;-72
2023/03/18 03:04:25;;;;;;;6.47;2.22;;;37.30;83.00;;;;;;5054816;28;20203;-73
2023/03/18 03:06:56;;;;;;;4.13;1.88;;;37.40;87.20;;;;;;5055057;28;20181;-72
2023/03/18 03:09:24;;;;;;;9.05;2.47;;;37.10;86.10;;;;;;5054782;28;20303;-71
2023/03/18 03:11:51;;;;;;;4.75;2.15;;;36.80;80.20;;;;;;5054783;28;20270;-71
2023/03/18 03:17:41;;;;;;;5.80;2.15;;;37.10;85.10;;;;;;5059833;28;20210;-70
2023/03/18 03:20:10;;;;;;;7.07;2.10;;;37.30;81.80;;;;;;5060471;28;20234;-72
2023/03/18 03:22:37;;;;;;;7.32;1.80;;;37.30;78.90;;;;;;5066562;28;20245;-71
2023/03/18 03:25:06;;;;;;;5.65;1.60;;;37.60;77.00;;;;;;5066822;28;20201;-72
2023/03/18 03:27:33;;;;;;;3.72;1.95;;;37.40;61.90;;;;;;5073711;28;20587;-71
2023/03/18 03:30:01;;;;;;;6.32;1.75;;;37.10;59.20;;;;;;5073612;28;20538;-70
2023/03/18 03:32:29;;;;;;;3.22;1.90;;;37.00;64.90;;;;;;5073475;28;20685;-72
2023/03/18 03:34:57;;;;;;;2.78;1.60;;;37.00;68.10;;;;;;5073148;28;20184;-71
2023/03/18 03:37:26;;;;;;;3.83;1.75;;;36.70;63.20;;;;;;5071826;28;20199;-72
2023/03/18 03:39:53;;;;;;;4.72;1.52;;;36.90;62.10;;;;;;5072255;28;20574;-71
2023/03/18 03:42:21;;;;;;;3.88;1.65;;;36.80;55.90;;;;;;5073470;28;20193;-71
2023/03/18 03:44:49;;;;;;;4.00;1.83;;;36.70;52.90;;;;;;5060577;28;20193;-71
2023/03/18 03:47:17;;;;;;;4.07;1.63;;;36.70;55.10;;;;;;5052006;28;20180;-72
2023/03/18 03:49:45;;;;;;;7.78;1.52;;;37.00;55.90;;;;;;5087221;28;20188;-71
2023/03/18 03:52:13;;;;;;;7.50;2.38;;;37.40;60.40;;;;;;5074093;28;20203;-71
2023/03/18 03:54:41;;;;;;;8.50;2.17;;;37.80;59.90;;;;;;5055943;28;20232;-72
2023/03/18 03:57:09;;;;;;;5.30;1.83;;;37.80;54.50;;;;;;5054035;28;20546;-71
2023/03/18 03:59:37;;;;;;;5.03;1.77;;;37.40;52.40;;;;;;5053719;28;20180;-72
2023/03/18 04:02:05;;;;;;;4.53;1.80;;;37.30;54.10;;;;;;5054058;28;20227;-71
2023/03/18 04:04:33;;;;;;;5.25;1.70;;;37.30;52.80;;;;;;5053986;28;20177;-71
2023/03/18 04:07:02;;;;;;;2.67;1.27;;;37.10;50.70;;;;;;5053600;28;20193;-72
2023/03/18 04:09:29;;;;;;;4.22;1.50;;;37.00;54.80;;;;;;5053880;28;20188;-71
2023/03/18 04:11:57;;;;;;;3.55;1.60;;;37.10;53.80;;;;;;5053382;28;20694;-71
2023/03/18 04:14:25;;;;;;;3.65;1.58;;;37.10;49.90;;;;;;5061359;28;20207;-71
2023/03/18 04:16:56;;;;;;;6.03;1.85;;;36.70;50.60;;;;;;5070623;28;20183;-70
2023/03/18 04:19:27;;;;;;;3.42;1.33;;;36.70;49.60;;;;;;5056948;28;20199;-71
2023/03/18 04:21:55;;;;;;;3.13;1.40;;;36.80;45.50;;;;;;5062493;28;20195;-71
2023/03/18 04:24:23;;;;;;;3.55;1.25;;;36.70;46.00;;;;;;5070752;28;20184;-71
2023/03/18 04:26:51;;;;;;;2.90;1.20;;;36.90;47.10;;;;;;5062953;28;20555;-71
2023/03/18 04:29:19;;;;;;;3.80;1.40;;;36.50;40.60;;;;;;5055086;28;20267;-71
2023/03/18 04:31:47;;;;;;;6.35;1.33;;;36.40;42.90;;;;;;5053805;28;20194;-71
2023/03/18 04:34:14;;;;;;;2.58;1.20;;;36.30;46.10;;;;;;5051492;28;20226;-70
2023/03/18 04:36:42;;;;;;;6.57;3.47;;;35.90;47.90;;;;;;5052841;28;20192;-71
2023/03/18 04:39:10;;;;;;;14.65;4.97;;;35.90;84.80;;;;;;5052733;28;20180;-71
2023/03/18 04:41:38;;;;;;;8.75;3.53;;;35.90;98.40;;;;;;5052294;28;20180;-71
2023/03/18 04:44:06;;;;;;;11.82;4.50;;;35.90;99.90;;;;;;5053175;28;20193;-70
2023/03/18 04:46:35;;;;;;;15.93;4.72;;;35.80;99.90;;;;;;5040762;28;20203;-71
2023/03/18 04:49:02;;;;;;;7.75;4.32;;;35.70;99.90;;;;;;5057613;28;20195;-71
2023/03/18 04:51:30;;;;;;;10.07;4.00;;;35.70;99.90;;;;;;5049153;28;20184;-71
2023/03/18 04:53:58;;;;;;;10.10;4.40;;;36.00;99.90;;;;;;5065976;28;20212;-71
2023/03/18 04:56:26;;;;;;;12.57;4.90;;;36.10;99.90;;;;;;5052838;28;20222;-72
2023/03/18 04:58:54;;;;;;;12.45;4.30;;;35.80;99.90;;;;;;5052867;28;20176;-71
2023/03/18 05:04:44;;;;;;;11.45;4.63;;;35.80;99.90;;;;;;5052475;28;20184;-72
2023/03/18 05:07:16;;;;;;;8.73;4.53;;;35.50;99.90;;;;;;5051097;28;20627;-71
2023/03/18 05:13:05;;;;;;;8.95;3.85;;;35.40;99.90;;;;;;5051255;28;20254;-71
2023/03/18 05:15:33;;;;;;;10.52;4.00;;;35.30;99.90;;;;;;5052439;28;20546;-72
2023/03/18 05:18:03;;;;;;;9.88;4.22;;;35.10;99.90;;;;;;5051700;28;20182;-72
2023/03/18 05:20:31;;;;;;;9.50;3.72;;;35.10;99.90;;;;;;5052486;28;20173;-72
2023/03/18 05:22:59;;;;;;;12.05;4.22;;;35.10;99.90;;;;;;5051953;28;20188;-72
2023/03/18 05:25:27;;;;;;;12.70;4.32;;;34.80;99.90;;;;;;5058821;28;20191;-72
2023/03/18 05:27:56;;;;;;;9.30;4.07;;;34.70;99.90;;;;;;5071454;28;20314;-71
2023/03/18 05:30:24;;;;;;;10.27;4.00;;;34.90;99.90;;;;;;5058406;28;20214;-72
2023/03/18 05:32:52;;;;;;;7.75;3.95;;;34.90;99.90;;;;;;5067385;28;20711;-72
2023/03/18 05:35:20;;;;;;;13.10;4.20;;;34.90;99.90;;;;;;5071095;28;20641;-72
2023/03/18 05:37:48;;;;;;;9.43;4.55;;;34.50;99.90;;;;;;5072153;28;20176;-72
2023/03/18 05:40:16;;;;;;;12.10;4.15;;;34.30;99.90;;;;;;5070479;28;20184;-72
2023/03/18 05:42:44;;;;;;;11.93;4.20;;;34.20;99.90;;;;;;5061563;28;20189;-72
2023/03/18 05:45:12;;;;;;;11.73;4.43;;;34.20;99.90;;;;;;5057600;28;20225;-72
2023/03/18 05:47:39;;;;;;;9.13;4.32;;;34.30;99.90;;;;;;5072464;28;20552;-72
2023/03/18 05:50:09;;;;;;;6.72;3.97;;;34.20;99.90;;;;;;5063536;28;20189;-73
2023/03/18 05:52:37;;;;;;;11.30;3.97;;;34.10;99.90;;;;;;5051838;28;20205;-70
2023/03/18 05:55:05;;;;;;;5.60;3.85;;;34.00;99.90;;;;;;5051395;28;20554;-71
2023/03/18 05:57:33;;;;;;;9.85;4.22;;;33.70;99.90;;;;;;5032195;28;20169;-72
2023/03/18 06:00:01;;;;;;;13.48;4.57;;;33.50;99.90;;;;;;5051840;28;20188;-72
2023/03/18 06:02:31;;;;;;;8.45;4.10;;;33.40;99.90;;;;;;5051906;28;20226;-72
2023/03/18 06:05:00;;;;;;;8.60;3.80;;;33.20;99.90;;;;;;5052004;28;20540;-72
2023/03/18 06:07:28;;;;;;;13.18;4.85;;;32.90;99.90;;;;;;5049262;28;20263;-72
2023/03/18 06:09:56;;;;;;;9.57;3.97;;;32.90;99.90;;;;;;5058789;28;20193;-72
2023/03/18 06:12:26;;;;;;;11.95;4.30;;;32.90;99.90;;;;;;5031477;28;20252;-71
2023/03/18 06:14:54;;;;;;;12.82;4.40;;;32.70;99.90;;;;;;5031759;28;20212;-72
2023/03/18 06:17:22;;;;;;;13.50;3.92;;;32.90;99.90;;;;;;5033179;28;20177;-72
2023/03/18 06:19:50;;;;;;;12.43;4.38;;;32.90;99.90;;;;;;5071956;28;20206;-72
2023/03/18 06:22:18;;;;;;;16.25;4.30;;;32.70;99.90;;;;;;5071982;28;20188;-72
2023/03/18 06:24:46;;;;;;;14.68;4.70;;;32.60;99.90;;;;;;5070423;28;20294;-72
2023/03/18 06:27:14;;;;;;;12.20;4.82;;;32.50;99.90;;;;;;5071812;28;20183;-71
2023/03/18 06:29:42;;;;;;;13.10;4.68;;;32.00;99.90;;;;;;5072688;28;20172;-72
2023/03/18 06:32:10;;;;;;;13.68;4.95;;;31.80;99.90;;;;;;5075924;28;20191;-72
2023/03/18 06:34:38;;;;;;;14.55;5.03;;;31.50;99.90;;;;;;5075927;28;20268;-71
2023/03/18 06:37:07;;;;;;;12.85;4.80;;;31.40;99.90;;;;;;5075855;28;20520;-72
2023/03/18 06:39:38;;;;;;;16.15;5.20;;;31.40;99.90;;;;;;5075754;28;20183;-72
2023/03/18 06:42:06;;;;;;;19.58;5.95;;;31.30;99.90;;;;;;5075708;28;20176;-71
2023/03/18 06:44:34;;;;;;;19.00;4.90;;;31.40;99.90;;;;;;5075609;28;20176;-72
2023/03/18 06:47:01;;;;;;;12.18;4.82;;;31.50;99.90;;;;;;5075512;28;20194;-72
2023/03/18 06:49:30;;;;;;;15.38;4.82;;;31.40;99.90;;;;;;5074257;28;20494;-71
2023/03/18 06:51:58;;;;;;;18.40;5.53;;;31.20;99.90;;;;;;5074180;28;20180;-72
2023/03/18 06:54:26;;;;;;;18.23;5.75;;;31.20;99.90;;;;;;5075366;28;20216;-71
2023/03/18 06:56:54;;;;;;;15.73;5.40;;;31.30;99.90;;;;;;5075381;28;20258;-72
2023/03/18 06:59:22;;;;;;;12.18;4.25;;;31.20;99.90;;;;;;5075422;28;20179;-72
2023/03/18 07:01:49;;;;;;;20.80;5.27;;;31.00;99.90;;;;;;5075152;28;20190;-72
2023/03/18 07:07:40;;;;;;;14.73;4.87;;;31.00;99.90;;;;;;5074687;28;20687;-72
2023/03/18 07:10:15;;;;;;;13.25;4.95;;;30.80;99.90;;;;;;5075185;28;20195;-72
2023/03/18 07:12:43;;;;;;;15.70;5.00;;;30.70;99.90;;;;;;5074737;28;20235;-72
2023/03/18 07:15:11;;;;;;;17.03;4.83;;;30.70;99.90;;;;;;5073732;28;20176;-72
2023/03/18 07:17:39;;;;;;;14.33;5.03;;;30.70;99.90;;;;;;5074798;28;20248;-72
2023/03/18 07:20:07;;;;;;;16.47;4.97;;;30.60;99.90;;;;;;5074939;28;20172;-72
2023/03/18 07:22:36;;;;;;;14.53;5.00;;;30.50;99.90;;;;;;5074813;28;20656;-72
2023/03/18 07:25:04;;;;;;;15.10;5.20;;;30.30;99.90;;;;;;5074719;28;20532;-72
2023/03/18 07:27:32;;;;;;;19.40;5.80;;;30.20;99.90;;;;;;5074666;28;20177;-72
2023/03/18 07:30:00;;;;;;;20.33;5.30;;;30.00;99.90;;;;;;5074524;28;20203;-72
2023/03/18 07:32:31;;;;;;;15.73;5.17;;;29.90;99.90;;;;;;5073293;28;20176;-72
2023/03/18 07:35:01;;;;;;;16.50;5.77;;;29.70;99.90;;;;;;5061835;28;20187;-71
2023/03/18 07:37:29;;;;;;;20.27;5.03;;;29.60;99.90;;;;;;5054268;28;20635;-71
2023/03/18 07:39:56;;;;;;;14.63;4.83;;;29.50;99.90;;;;;;5054634;28;20664;-70
2023/03/18 07:42:24;;;;;;;14.17;5.67;;;29.30;99.90;;;;;;5053838;28;20177;-72
2023/03/18 07:44:51;;;;;;;16.80;5.37;;;29.30;99.90;;;;;;5051801;28;20570;-72
2023/03/18 07:47:19;;;;;;;11.50;5.27;;;29.20;99.90;;;;;;5054236;28;20577;-70
2023/03/18 07:49:47;;;;;;;18.87;5.37;;;29.10;99.90;;;;;;5054654;28;20242;-72
2023/03/18 07:52:50;;;;;;;24.30;5.83;;;29.00;99.90;;;;;;5054633;28;20175;-71
2023/03/18 07:55:18;;;;;;;24.07;5.20;;;28.90;99.90;;;;;;5054666;28;20580;-72
2023/03/18 07:57:46;;;;;;;16.13;5.47;;;28.90;99.90;;;;;;5053102;28;20553;-72
2023/03/18 08:00:14;;;;;;;23.03;5.20;;;28.90;99.90;;;;;;5054683;28;20312;-72
2023/03/18 08:02:41;;;;;;;14.37;5.73;;;28.80;99.90;;;;;;5054829;28;20191;-71
2023/03/18 08:05:10;;;;;;;18.07;6.00;;;28.70;99.90;;;;;;5054593;28;20250;-71
2023/03/18 08:07:38;;;;;;;16.13;5.77;;;28.60;99.90;;;;;;5054005;28;20207;-72
2023/03/18 08:10:05;;;;;;;17.30;6.33;;;28.60;99.90;;;;;;5054449;28;20187;-71
2023/03/18 08:12:33;;;;;;;13.83;5.43;;;28.50;99.90;;;;;;5054097;28;20545;-71
2023/03/18 08:15:00;;;;;;;13.57;5.57;;;28.40;99.90;;;;;;5054556;28;20641;-71
2023/03/18 08:17:27;;;;;;;19.57;6.20;;;28.40;99.90;;;;;;5054688;28;20180;-70
2023/03/18 08:19:55;;;;;;;20.63;5.83;;;28.40;99.90;;;;;;5054564;28;20212;-70
2023/03/18 08:22:24;;;;;;;17.97;5.57;;;28.20;99.90;;;;;;5054290;28;20680;-70
2023/03/18 08:24:52;;;;;;;18.00;6.60;;;28.20;99.90;;;;;;5054364;28;20181;-70
2023/03/18 08:27:19;;;;;;;15.20;5.33;;;28.10;99.90;;;;;;5054471;28;20193;-71
2023/03/18 08:29:47;;;;;;;18.17;6.23;;;28.10;99.90;;;;;;5054441;28;20259;-71
2023/03/18 08:32:15;;;;;;;19.20;5.67;;;28.00;99.90;;;;;;5054393;28;20721;-70
2023/03/18 08:34:43;;;;;;;22.27;6.53;;;27.90;99.90;;;;;;5054099;28;20180;-70
2023/03/18 08:37:11;;;;;;;19.30;5.73;;;27.80;99.90;;;;;;5054298;28;20695;-69
2023/03/18 08:39:40;;;;;;;17.27;6.13;;;27.80;99.90;;;;;;5053981;28;20828;-70
2023/03/18 08:42:07;;;;;;;20.37;5.70;;;27.70;99.90;;;;;;5054367;28;20172;-70
2023/03/18 08:44:35;;;;;;;23.47;6.30;;;27.70;99.90;;;;;;5054213;28;20181;-70
2023/03/18 08:47:02;;;;;;;13.67;5.13;;;27.60;99.90;;;;;;5052455;28;20185;-71
2023/03/18 08:49:30;;;;;;;16.60;5.33;;;27.40;99.90;;;;;;5054008;28;20169;-71
2023/03/18 08:51:57;;;;;;;16.53;6.67;;;27.30;99.90;;;;;;5053487;28;20264;-71
2023/03/18 08:54:24;;;;;;;19.67;5.77;;;27.20;99.90;;;;;;5053022;28;20224;-72
2023/03/18 08:56:54;;;;;;;13.77;6.00;;;27.20;99.90;;;;;;5053743;28;20653;-71
2023/03/18 08:59:21;;;;;;;15.20;6.07;;;27.20;99.90;;;;;;5053850;28;20549;-70
2023/03/18 09:01:49;;;;;;;21.73;6.07;;;27.10;99.90;;;;;;5053334;28;20165;-70
2023/03/18 09:04:17;;;;;;;19.90;6.57;;;27.00;99.90;;;;;;5053626;28;20168;-70
2023/03/18 09:06:44;;;;;;;17.60;6.33;;;27.00;99.90;;;;;;5053884;28;20181;-70
2023/03/18 09:09:12;;;;;;;20.67;6.13;;;26.90;99.90;;;;;;5053565;28;20252;-69
2023/03/18 09:11:39;;;;;;;16.77;6.40;;;26.80;99.90;;;;;;5053502;28;20248;-71
2023/03/18 09:14:07;;;;;;;20.43;6.30;;;26.80;99.90;;;;;;5052884;28;20701;-69
2023/03/18 09:16:35;;;;;;;11.77;5.50;;;26.80;99.90;;;;;;5053508;28;20192;-69
2023/03/18 09:19:02;;;;;;;21.07;6.67;;;26.80;99.90;;;;;;5053439;28;20684;-71
2023/03/18 09:21:30;;;;;;;21.13;6.40;;;26.70;99.90;;;;;;5053323;28;20547;-71
2023/03/18 09:23:57;;;;;;;16.87;5.90;;;26.60;99.90;;;;;;5053189;28;20176;-71
2023/03/18 09:26:25;;;;;;;17.43;6.83;;;26.60;99.90;;;;;;5053245;28;20260;-71
2023/03/18 09:28:52;;;;;;;19.87;6.60;;;26.50;99.90;;;;;;5053181;28;20260;-71
2023/03/18 09:31:20;;;;;;;17.17;6.03;;;26.40;99.90;;;;;;5052908;28;20172;-70
2023/03/18 09:33:47;;;;;;;20.97;7.13;;;26.40;99.90;;;;;;5052882;28;20239;-71
2023/03/18 09:36:15;;;;;;;16.50;6.30;;;26.30;99.90;;;;;;5053183;28;20172;-70
2023/03/18 09:38:42;;;;;;;15.03;6.47;;;26.30;99.90;;;;;;5052794;28;20202;-70
2023/03/18 09:41:32;;;;;;;17.23;6.17;;;26.10;99.90;;;;;;5051718;28;20692;-70
2023/03/18 09:44:38;;;;;;;15.50;6.00;;;26.10;99.90;;;;;;5052995;28;20188;-70
2023/03/18 09:47:27;;;;;;;21.20;6.23;;;25.90;99.90;;;;;;5011413;28;20283;-70
2023/03/18 09:50:13;;;;;;;22.30;6.73;;;25.90;99.90;;;;;;5010782;28;20260;-70
2023/03/18 09:52:58;;;;;;;14.60;6.30;;;25.80;99.90;;;;;;5037541;28;20595;-70
2023/03/18 09:55:39;;;;;;;22.30;6.07;;;25.80;99.90;;;;;;5050931;28;20189;-71
2023/03/18 09:58:23;;;;;;;20.10;6.23;;;25.70;99.90;;;;;;5053073;28;20184;-69
2023/03/18 10:00:56;;;;;;;17.77;6.00;;;25.70;99.90;;;;;;5052683;28;20200;-70
2023/03/18 10:03:33;;;;;;;22.23;7.07;;;25.60;99.90;;;;;;5055128;28;20187;-69
2023/03/18 10:06:10;;;;;;;17.50;6.80;;;25.60;99.90;;;;;;5071361;28;20183;-70
2023/03/18 10:09:04;;;;;;;21.83;6.40;;;25.60;99.90;;;;;;5033006;28;20606;-70
2023/03/18 10:11:43;;;;;;;27.03;7.43;;;25.50;99.90;;;;;;5031339;28;20276;-71
2023/03/18 10:14:34;;;;;;;20.90;6.17;;;25.50;99.90;;;;;;5052958;28;20232;-70
2023/03/18 10:17:12;;;;;;;17.23;6.47;;;25.50;99.90;;;;;;5063367;28;20185;-70
2023/03/18 10:19:50;;;;;;;20.40;6.37;;;25.40;99.90;;;;;;5052192;28;20270;-70
2023/03/18 10:22:36;;;;;;;18.33;6.10;;;25.30;99.90;;;;;;5052208;28;20534;-70
2023/03/18 10:25:10;;;;;;;21.77;7.70;;;25.30;99.90;;;;;;5052903;28;20181;-70
2023/03/18 10:27:46;;;;;;;22.27;6.90;;;25.20;99.90;;;;;;5034595;28;20169;-69
2023/03/18 10:30:33;;;;;;;19.33;6.27;;;25.20;99.90;;;;;;5063412;28;20191;-71
2023/03/18 10:33:28;;;;;;;18.07;6.40;;;25.10;99.90;;;;;;5067961;28;20752;-70
2023/03/18 10:36:00;;;;;;;20.07;6.90;;;25.00;99.90;;;;;;5067327;28;20187;-70
2023/03/18 10:38:33;;;;;;;17.53;6.17;;;25.00;99.90;;;;;;5072140;28;20236;-70
2023/03/18 10:41:01;;;;;;;17.27;5.97;;;24.90;99.90;;;;;;5072281;28;20218;-70
2023/03/18 10:43:32;;;;;;;25.17;6.40;;;24.90;99.90;;;;;;5072413;28;20222;-70
2023/03/18 10:46:04;;;;;;;20.23;6.77;;;24.90;99.90;;;;;;5067555;28;20676;-70
2023/03/18 10:48:56;;;;;;;31.17;6.90;;;24.90;99.90;;;;;;5072564;28;20183;-72
2023/03/18 10:51:49;;;;;;;30.50;6.40;;;24.80;99.90;;;;;;5072409;28;20172;-72
2023/03/18 10:54:42;;;;;;;17.27;6.03;;;24.80;99.90;;;;;;5067774;28;20212;-70
2023/03/18 10:57:16;;;;;;;26.90;7.23;;;24.70;99.90;;;;;;5032333;28;20169;-71
2023/03/18 10:59:44;;;;;;;17.77;6.70;;;24.60;99.90;;;;;;5031838;28;20169;-70
2023/03/18 11:02:33;;;;;;;14.60;6.47;;;24.60;99.90;;;;;;5032168;28;20176;-70
2023/03/18 11:05:23;;;;;;;19.10;6.47;;;24.60;99.90;;;;;;5046734;28;20211;-71
2023/03/18 11:07:59;;;;;;;21.53;6.57;;;24.50;99.90;;;;;;5071943;28;20184;-72
2023/03/18 11:10:34;;;;;;;18.47;6.33;;;24.50;99.90;;;;;;5072076;28;20565;-71
2023/03/18 11:13:03;;;;;;;19.23;6.07;;;24.50;99.90;;;;;;5070571;28;20283;-71
2023/03/18 11:15:42;;;;;;;24.73;7.13;;;24.50;99.90;;;;;;5048764;28;20185;-71
2023/03/18 11:18:16;;;;;;;19.27;7.00;;;24.50;99.90;;;;;;5035901;28;20176;-72
2023/03/18 11:20:48;;;;;;;28.13;7.07;;;24.50;99.90;;;;;;5036021;28;20263;-70
2023/03/18 11:23:19;;;;;;;23.87;7.27;;;24.40;99.90;;;;;;5035791;28;20177;-70
2023/03/18 11:25:55;;;;;;;17.07;6.17;;;24.30;99.90;;;;;;5043252;28;20614;-70
2023/03/18 11:32:00;;;;;;;25.50;6.80;;;24.30;99.90;;;;;;5034977;28;20192;-71
2023/03/18 11:34:34;;;;;;;24.50;7.13;;;24.20;99.90;;;;;;5035760;28;20221;-71
2023/03/18 11:37:07;;;;;;;19.20;6.20;;;24.20;99.90;;;;;;5055569;28;20783;-71
2023/03/18 11:39:40;;;;;;;26.10;6.87;;;24.20;99.90;;;;;;5055148;28;20592;-71
2023/03/18 11:42:57;;;;;;;24.23;6.30;;;24.10;99.90;;;;;;5055160;28;20227;-70
2023/03/18 11:46:10;;;;;;;16.73;5.90;;;24.10;99.90;;;;;;5055232;28;20219;-71
2023/03/18 11:48:43;;;;;;;17.57;5.37;;;24.10;99.90;;;;;;5054393;28;20184;-72
2023/03/18 11:51:28;;;;;;;14.10;5.90;;;24.00;99.90;;;;;;5055408;28;20168;-70
2023/03/18 11:54:12;;;;;;;20.40;6.13;;;24.00;99.90;;;;;;5055224;28;20215;-69
2023/03/18 11:56:55;;;;;;;22.33;7.20;;;23.90;99.90;;;;;;5055146;28;20641;-71
2023/03/18 11:59:51;;;;;;;19.00;6.17;;;23.90;99.90;;;;;;5054960;28;20168;-72
2023/03/18 12:02:24;;;;;;;23.60;7.10;;;23.80;99.90;;;;;;5035850;28;20197;-72
2023/03/18 12:05:00;;;;;;;22.20;7.63;;;23.80;99.90;;;;;;5055098;28;20678;-73
2023/03/18 12:07:42;;;;;;;28.43;7.40;;;23.80;99.90;;;;;;5053274;28;20181;-70
2023/03/18 12:10:28;;;;;;;16.60;6.13;;;23.80;99.90;;;;;;5055070;28;20641;-71
2023/03/18 12:13:21;;;;;;;24.30;7.00;;;23.80;99.90;;;;;;5054348;28;20589;-72
2023/03/18 12:16:26;;;;;;;25.67;6.63;;;23.70;99.90;;;;;;5054913;28;20506;-71
2023/03/18 12:19:34;;;;;;;24.10;6.57;;;23.70;99.90;;;;;;5049544;28;20180;-72
2023/03/18 12:22:12;;;;;;;23.97;6.57;;;23.60;99.90;;;;;;5051891;28;20691;-72
2023/03/18 12:24:51;;;;;;;23.53;6.90;;;23.60;99.90;;;;;;5053438;28;20180;-72
2023/03/18 12:27:33;;;;;;;23.13;7.00;;;23.60;99.90;;;;;;5054297;28;20176;-70
2023/03/18 12:30:14;;;;;;;20.50;6.10;;;23.60;99.90;;;;;;5054644;28;20169;-70
2023/03/18 12:33:03;;;;;;;20.67;7.47;;;23.50;99.90;;;;;;5053094;28;20588;-70
2023/03/18 12:35:54;;;;;;;22.27;6.77;;;23.50;99.90;;;;;;5053613;28;20237;-70
2023/03/18 12:38:56;;;;;;;23.63;6.50;;;23.40;99.90;;;;;;5054287;28;20691;-69
2023/03/18 12:41:35;;;;;;;27.30;7.03;;;23.40;99.90;;;;;;5054161;28;20221;-69
2023/03/18 12:44:12;;;;;;;27.10;8.23;;;23.40;99.90;;;;;;5054216;28;20200;-69
2023/03/18 12:46:58;;;;;;;20.10;6.97;;;23.40;99.90;;;;;;5052785;28;20541;-69
2023/03/18 12:49:34;;;;;;;28.37;7.00;;;23.40;99.90;;;;;;5054252;28;20197;-69
2023/03/18 12:52:21;;;;;;;16.70;6.10;;;23.40;99.90;;;;;;5053866;28;20521;-69
2023/03/18 12:55:14;;;;;;;18.80;6.23;;;23.40;99.90;;;;;;5034158;28;20674;-69
2023/03/18 12:58:13;;;;;;;27.70;7.20;;;23.40;99.90;;;;;;5033726;28;20248;-70
2023/03/18 13:01:05;;;;;;;15.93;5.77;;;23.30;99.90;;;;;;5031384;28;20546;-70
2023/03/18 13:03:37;;;;;;;15.77;6.40;;;23.20;99.90;;;;;;5053916;28;20637;-70
2023/03/18 13:06:41;;;;;;;19.10;6.37;;;23.20;99.90;;;;;;5063930;28;20192;-70
2023/03/18 13:09:33;;;;;;;24.80;7.13;;;23.10;99.90;;;;;;5047000;28;20184;-69
2023/03/18 13:12:19;;;;;;;19.07;5.83;;;23.10;99.90;;;;;;5048436;28;20213;-70
2023/03/18 13:15:24;;;;;;;18.30;6.80;;;23.00;99.90;;;;;;5033714;28;20631;-70
2023/03/18 13:17:57;;;;;;;22.07;6.67;;;23.00;99.90;;;;;;5033405;28;20204;-70
2023/03/18 13:20:34;;;;;;;23.50;6.83;;;23.00;99.90;;;;;;5034883;28;20181;-70
2023/03/18 13:26:45;;;;;;;15.77;6.57;;;22.90;99.90;;;;;;5032767;28;20192;-70
2023/03/18 13:29:49;;;;;;;20.67;7.30;;;22.90;99.90;;;;;;5033462;28;20715;-69
2023/03/18 13:32:19;;;;;;;20.37;6.53;;;22.80;99.90;;;;;;5032747;28;20185;-70
2023/03/18 13:35:05;;;;;;;22.43;6.50;;;22.80;99.90;;;;;;5033043;28;20339;-70